createdAt,value
2023-03-12T00:01:59.806Z,68.67
2023-03-12T00:04:26.866Z,67.84
2023-03-12T00:06:53.450Z,67.53
2023-03-12T00:09:20.142Z,68.39
2023-03-12T00:11:46.706Z,68.09
2023-03-12T00:14:13.263Z,67.60
2023-03-12T00:16:39.800Z,68.24
2023-03-12T00:19:06.374Z,68.46
2023-03-12T00:21:33.090Z,68.16
2023-03-12T00:23:59.730Z,66.99
2023-03-12T00:26:26.313Z,66.82
2023-03-12T00:28:53.881Z,67.48
2023-03-12T00:31:29.658Z,67.30
2023-03-12T00:33:56.544Z,68.12
2023-03-12T00:36:27.047Z,67.04
2023-03-12T00:38:54.825Z,67.33
2023-03-12T00:41:21.940Z,66.00
2023-03-12T00:43:49.855Z,66.79
2023-03-12T00:46:16.563Z,67.03
2023-03-12T00:48:43.556Z,66.77
2023-03-12T00:51:10.983Z,67.47
2023-03-12T00:53:37.686Z,67.75
2023-03-12T00:56:05.381Z,67.40
2023-03-12T00:58:32.097Z,67.15
2023-03-12T01:00:58.959Z,68.00
2023-03-12T01:03:25.735Z,67.75
2023-03-12T01:05:55.166Z,67.87
2023-03-12T01:08:22.356Z,67.67
2023-03-12T01:10:48.900Z,68.93
2023-03-12T01:13:15.561Z,68.99
2023-03-12T01:15:42.773Z,68.09
2023-03-12T01:18:09.341Z,67.88
2023-03-12T01:20:36.270Z,67.26
2023-03-12T01:23:02.901Z,67.48
2023-03-12T01:25:29.546Z,67.96
2023-03-12T01:27:56.086Z,67.74
2023-03-12T01:30:23.761Z,67.44
2023-03-12T01:32:51.604Z,66.98
2023-03-12T01:35:18.581Z,67.60
2023-03-12T01:37:45.315Z,67.62
2023-03-12T01:40:16.068Z,67.62
2023-03-12T01:42:42.687Z,66.51
2023-03-12T01:45:46.766Z,66.10
2023-03-12T01:48:13.377Z,68.03
2023-03-12T01:50:39.923Z,68.18
2023-03-12T01:53:06.576Z,67.73
2023-03-12T01:55:33.258Z,68.40
2023-03-12T01:58:01.642Z,68.26
2023-03-12T02:00:28.338Z,68.25
2023-03-12T02:03:00.013Z,67.68
2023-03-12T02:05:35.320Z,67.94
2023-03-12T02:08:01.982Z,68.22
2023-03-12T02:10:28.889Z,67.97
2023-03-12T02:12:55.456Z,67.83
2023-03-12T02:15:22.261Z,67.69
2023-03-12T02:17:48.854Z,67.59
2023-03-12T02:20:20.828Z,67.31
2023-03-12T02:22:52.029Z,68.18
2023-03-12T02:25:25.458Z,68.42
2023-03-12T02:27:52.794Z,68.25
2023-03-12T02:30:20.067Z,67.21
2023-03-12T02:32:47.556Z,66.56
2023-03-12T02:35:16.069Z,65.29
2023-03-12T02:37:53.809Z,66.34
2023-03-12T02:40:35.248Z,66.75
2023-03-12T02:43:02.727Z,67.31
2023-03-12T02:45:29.972Z,67.84
2023-03-12T02:47:56.537Z,67.77
2023-03-12T02:50:23.382Z,67.87
2023-03-12T02:52:50.027Z,67.17
2023-03-12T02:55:17.414Z,67.53
2023-03-12T02:57:44.104Z,67.73
2023-03-12T03:00:14.652Z,67.50
2023-03-12T03:02:45.301Z,68.12
2023-03-12T03:05:12.380Z,66.97
2023-03-12T03:07:39.495Z,67.42
2023-03-12T03:10:06.666Z,66.39
2023-03-12T03:12:35.564Z,66.97
2023-03-12T03:15:04.326Z,66.98
2023-03-12T03:17:30.985Z,67.21
2023-03-12T03:19:57.581Z,67.42
2023-03-12T03:22:24.222Z,66.81
2023-03-12T03:24:50.834Z,67.32
2023-03-12T03:27:17.419Z,67.58
2023-03-12T03:29:46.172Z,66.92
2023-03-12T03:32:13.321Z,67.08
2023-03-12T03:34:40.004Z,66.99
2023-03-12T03:37:06.738Z,67.11
2023-03-12T03:39:34.666Z,67.62
2023-03-12T03:42:01.573Z,66.91
2023-03-12T03:44:31.103Z,67.59
2023-03-12T03:46:57.788Z,68.23
2023-03-12T03:49:24.381Z,68.72
2023-03-12T03:51:55.315Z,68.77
2023-03-12T03:54:31.190Z,68.43
2023-03-12T03:56:58.273Z,68.78
2023-03-12T03:59:25.061Z,68.41
2023-03-12T04:01:52.384Z,68.76
2023-03-12T04:04:18.973Z,68.55
2023-03-12T04:06:45.592Z,69.45
2023-03-12T04:09:13.958Z,68.65
2023-03-12T04:11:40.685Z,69.21
2023-03-12T04:14:08.769Z,69.31
2023-03-12T04:16:38.034Z,69.48
2023-03-12T04:19:05.139Z,69.55
2023-03-12T04:21:31.853Z,69.09
2023-03-12T04:23:58.497Z,69.34
2023-03-12T04:26:29.298Z,70.19
2023-03-12T04:28:56.689Z,69.46
2023-03-12T04:31:23.300Z,70.08
2023-03-12T04:33:50.893Z,70.37
2023-03-12T04:36:19.708Z,70.66
2023-03-12T04:38:48.554Z,70.41
2023-03-12T04:41:17.641Z,70.12
2023-03-12T04:43:51.739Z,70.38
2023-03-12T04:46:19.399Z,70.49
2023-03-12T04:48:46.767Z,70.46
2023-03-12T04:51:14.446Z,70.44
2023-03-12T04:53:41.249Z,70.59
2023-03-12T04:56:09.878Z,70.61
2023-03-12T04:58:37.689Z,70.65
2023-03-12T05:01:05.683Z,70.73
2023-03-12T05:03:32.678Z,70.65
2023-03-12T05:06:00.752Z,70.42
2023-03-12T05:08:27.405Z,70.97
2023-03-12T05:10:54.112Z,70.52
2023-03-12T05:13:22.522Z,70.47
2023-03-12T05:15:51.987Z,70.44
2023-03-12T05:18:21.618Z,70.18
2023-03-12T05:20:58.425Z,70.31
2023-03-12T05:23:25.015Z,70.23
2023-03-12T05:25:51.789Z,70.41
2023-03-12T05:28:20.210Z,70.38
2023-03-12T05:30:46.922Z,70.17
2023-03-12T05:33:13.617Z,70.34
2023-03-12T05:35:40.186Z,70.26
2023-03-12T05:38:06.780Z,70.32
2023-03-12T05:40:33.387Z,70.46
2023-03-12T05:42:59.933Z,70.46
2023-03-12T05:45:27.186Z,70.70
2023-03-12T05:47:56.063Z,70.85
2023-03-12T05:50:22.799Z,71.23
2023-03-12T05:52:49.569Z,70.83
2023-03-12T05:55:16.323Z,70.76
2023-03-12T05:57:42.970Z,70.77
2023-03-12T06:00:10.579Z,70.84
2023-03-12T06:02:40.131Z,70.84
2023-03-12T06:05:11.222Z,70.68
2023-03-12T06:07:38.198Z,70.76
2023-03-12T06:10:05.132Z,70.64
2023-03-12T06:12:31.757Z,71.19
2023-03-12T06:14:58.590Z,71.25
2023-03-12T06:17:25.321Z,71.31
2023-03-12T06:19:52.959Z,71.15
2023-03-12T06:22:20.762Z,70.93
2023-03-12T06:24:48.359Z,70.79
2023-03-12T06:27:16.774Z,70.82
2023-03-12T06:29:43.349Z,70.77
2023-03-12T06:32:09.888Z,70.89
2023-03-12T06:34:36.438Z,70.09
2023-03-12T06:37:03.065Z,70.03
2023-03-12T06:39:30.195Z,70.60
2023-03-12T06:41:56.856Z,70.47
2023-03-12T06:44:23.415Z,69.52
2023-03-12T06:46:50.052Z,69.52
2023-03-12T06:49:16.656Z,69.78
2023-03-12T06:51:43.237Z,69.49
2023-03-12T06:54:09.861Z,69.50
2023-03-12T06:56:36.559Z,69.02
2023-03-12T06:59:03.112Z,68.25
2023-03-12T07:01:29.677Z,67.46
2023-03-12T07:03:56.221Z,68.11
2023-03-12T07:06:24.137Z,68.20
2023-03-12T07:08:50.945Z,66.83
2023-03-12T07:11:20.413Z,66.60
2023-03-12T07:13:47.005Z,65.93
2023-03-12T07:16:14.038Z,66.63
2023-03-12T07:18:40.727Z,66.40
2023-03-12T07:21:07.291Z,65.80
2023-03-12T07:23:33.847Z,64.70
2023-03-12T07:26:00.394Z,65.05
2023-03-12T07:28:26.976Z,65.62
2023-03-12T07:30:53.542Z,65.54
2023-03-12T07:33:21.629Z,65.40
2023-03-12T07:35:51.567Z,64.77
2023-03-12T07:38:18.513Z,64.78
2023-03-12T07:40:45.276Z,63.99
2023-03-12T07:43:12.916Z,63.17
2023-03-12T07:45:41.240Z,63.43
2023-03-12T07:48:08.510Z,63.69
2023-03-12T07:50:35.902Z,62.88
2023-03-12T07:53:02.582Z,62.54
2023-03-12T07:55:29.160Z,62.61
2023-03-12T07:57:58.489Z,61.10
2023-03-12T08:00:26.308Z,59.98
2023-03-12T08:02:53.226Z,59.57
2023-03-12T08:05:20.313Z,58.87
2023-03-12T08:07:47.084Z,57.47
2023-03-12T08:10:14.037Z,56.20
2023-03-12T08:12:40.692Z,56.46
2023-03-12T08:15:08.506Z,56.38
2023-03-12T08:17:35.269Z,56.12
2023-03-12T08:20:01.806Z,55.72
2023-03-12T08:22:28.369Z,54.55
2023-03-12T08:24:55.005Z,54.34
2023-03-12T08:27:21.613Z,54.09
2023-03-12T08:29:48.209Z,52.69
2023-03-12T08:32:14.959Z,52.95
2023-03-12T08:34:41.816Z,52.27
2023-03-12T08:37:08.525Z,52.75
2023-03-12T08:39:35.144Z,52.02
2023-03-12T08:42:01.744Z,53.54
2023-03-12T08:44:28.493Z,52.14
2023-03-12T08:46:55.136Z,50.90
2023-03-12T08:49:22.277Z,51.63
2023-03-12T08:51:49.216Z,49.10
2023-03-12T08:54:15.818Z,49.44
2023-03-12T08:56:43.636Z,49.35
2023-03-12T08:59:13.648Z,47.60
2023-03-12T09:01:43.425Z,47.18
2023-03-12T09:04:10.530Z,49.96
2023-03-12T09:06:38.544Z,48.74
2023-03-12T09:09:05.750Z,45.46
2023-03-12T09:11:33.930Z,46.06
2023-03-12T09:16:47.655Z,45.39
2023-03-12T09:19:14.347Z,44.90
2023-03-12T09:21:40.919Z,45.29
2023-03-12T09:24:07.739Z,43.80
2023-03-12T09:26:34.533Z,43.48
2023-03-12T09:29:01.133Z,43.70
2023-03-12T09:31:27.958Z,45.40
2023-03-12T09:33:54.529Z,45.36
2023-03-12T09:36:21.141Z,45.10
2023-03-12T09:38:47.747Z,46.02
2023-03-12T09:41:18.949Z,44.83
2023-03-12T09:43:53.193Z,44.94
2023-03-12T09:46:27.481Z,43.79
2023-03-12T09:48:57.398Z,41.80
2023-03-12T09:51:45.154Z,41.76
2023-03-12T09:54:23.699Z,42.18
2023-03-12T09:56:51.588Z,41.04
2023-03-12T09:59:18.365Z,41.63
2023-03-12T10:01:48.247Z,42.02
2023-03-12T10:04:58.018Z,42.11
2023-03-12T10:07:49.716Z,42.33
2023-03-12T10:10:30.835Z,41.74
2023-03-12T10:13:23.921Z,41.38
2023-03-12T10:16:23.575Z,43.68
2023-03-12T10:19:00.353Z,43.34
2023-03-12T10:21:31.776Z,41.77
2023-03-12T10:24:25.111Z,45.56
2023-03-12T10:26:54.508Z,43.62
2023-03-12T10:29:27.196Z,40.61
2023-03-12T10:32:07.927Z,41.49
2023-03-12T10:34:55.367Z,41.22
2023-03-12T10:37:48.316Z,39.38
2023-03-12T10:40:17.894Z,37.99
2023-03-12T10:42:44.568Z,41.26
2023-03-12T10:45:21.493Z,41.53
2023-03-12T10:47:57.317Z,39.28
2023-03-12T10:50:29.690Z,40.32
2023-03-12T10:53:28.638Z,38.57
2023-03-12T10:56:10.345Z,36.12
2023-03-12T10:58:39.643Z,35.11
2023-03-12T11:01:31.694Z,35.01
2023-03-12T11:04:19.129Z,35.82
2023-03-12T11:07:05.895Z,36.06
2023-03-12T11:09:32.555Z,37.97
2023-03-12T11:11:59.110Z,35.31
2023-03-12T11:14:28.003Z,35.57
2023-03-12T11:16:55.349Z,35.59
2023-03-12T11:19:34.112Z,36.21
2023-03-12T11:22:09.020Z,37.92
2023-03-12T11:24:36.193Z,37.63
2023-03-12T11:27:14.112Z,34.97
2023-03-12T11:29:45.809Z,36.16
2023-03-12T11:32:19.102Z,37.53
2023-03-12T11:34:49.821Z,36.15
2023-03-12T11:37:38.608Z,35.68
2023-03-12T11:40:31.644Z,33.18
2023-03-12T11:43:01.138Z,34.53
2023-03-12T11:45:37.149Z,34.76
2023-03-12T11:48:06.613Z,34.34
2023-03-12T11:50:45.670Z,33.44
2023-03-12T11:53:33.623Z,35.12
2023-03-12T11:56:22.366Z,35.89
2023-03-12T11:59:11.395Z,34.23
2023-03-12T12:01:53.158Z,36.14
2023-03-12T12:04:44.841Z,35.56
2023-03-12T12:07:37.831Z,36.24
2023-03-12T12:10:25.420Z,37.38
2023-03-12T12:12:59.552Z,36.50
2023-03-12T12:15:41.991Z,36.79
2023-03-12T12:18:36.080Z,35.69
2023-03-12T12:21:09.013Z,36.76
2023-03-12T12:23:57.633Z,36.91
2023-03-12T12:26:46.113Z,37.89
2023-03-12T12:29:16.149Z,37.09
2023-03-12T12:31:57.284Z,35.56
2023-03-12T12:34:45.262Z,35.36
2023-03-12T12:37:30.174Z,34.45
2023-03-12T12:40:08.871Z,32.81
2023-03-12T12:42:39.461Z,33.03
2023-03-12T12:45:07.071Z,33.11
2023-03-12T12:47:47.446Z,33.58
2023-03-12T12:50:23.038Z,34.33
2023-03-12T12:52:54.246Z,34.98
2023-03-12T12:55:33.100Z,34.96
2023-03-12T12:58:05.005Z,35.93
2023-03-12T13:00:43.097Z,36.07
2023-03-12T13:03:19.186Z,35.95
2023-03-12T13:05:53.211Z,35.51
2023-03-12T13:08:44.592Z,36.68
2023-03-12T13:11:20.418Z,36.30
2023-03-12T13:14:12.055Z,38.48
2023-03-12T13:16:40.294Z,37.78
2023-03-12T13:19:16.271Z,38.52
2023-03-12T13:22:30.965Z,36.83
2023-03-12T13:25:17.500Z,37.81
2023-03-12T13:27:45.251Z,38.42
2023-03-12T13:30:33.604Z,38.23
2023-03-12T13:33:01.828Z,38.67
2023-03-12T13:35:33.278Z,37.57
2023-03-12T13:38:02.576Z,35.51
2023-03-12T13:40:29.129Z,36.40
2023-03-12T13:43:07.806Z,38.17
2023-03-12T13:45:41.546Z,37.56
2023-03-12T13:48:19.076Z,37.61
2023-03-12T13:51:01.646Z,37.86
2023-03-12T13:53:33.649Z,38.03
2023-03-12T13:56:07.739Z,38.21
2023-03-12T13:59:05.470Z,40.21
2023-03-12T14:01:36.938Z,40.11
2023-03-12T14:04:17.593Z,39.38
2023-03-12T14:07:09.907Z,39.17
2023-03-12T14:09:45.869Z,39.02
2023-03-12T14:12:27.849Z,39.36
2023-03-12T14:15:09.633Z,38.70
2023-03-12T14:17:36.794Z,40.17
2023-03-12T14:20:21.492Z,40.71
2023-03-12T14:22:54.242Z,40.40
2023-03-12T14:25:37.285Z,40.38
2023-03-12T14:28:10.917Z,41.40
2023-03-12T14:30:58.868Z,42.25
2023-03-12T14:33:27.742Z,43.19
2023-03-12T14:36:07.604Z,43.48
2023-03-12T14:38:43.546Z,43.22
2023-03-12T14:41:19.924Z,43.53
2023-03-12T14:43:46.700Z,43.37
2023-03-12T14:46:19.357Z,43.90
2023-03-12T14:48:49.506Z,43.49
2023-03-12T14:51:24.686Z,44.45
2023-03-12T14:53:51.723Z,44.54
2023-03-12T14:56:34.815Z,44.89
2023-03-12T14:59:29.338Z,46.06
2023-03-12T15:02:02.055Z,45.83
2023-03-12T15:04:29.476Z,47.18
2023-03-12T15:06:59.005Z,44.92
2023-03-12T15:09:28.105Z,45.01
2023-03-12T15:11:59.982Z,47.31
2023-03-12T15:14:29.579Z,46.33
2023-03-12T15:16:58.354Z,45.81
2023-03-12T15:19:44.578Z,45.33
2023-03-12T15:22:17.741Z,46.69
2023-03-12T15:24:44.572Z,46.25
2023-03-12T15:27:32.753Z,46.60
2023-03-12T15:30:01.012Z,46.81
2023-03-12T15:32:29.831Z,48.20
2023-03-12T15:34:59.147Z,47.97
2023-03-12T15:37:41.324Z,47.25
2023-03-12T15:40:20.452Z,46.94
2023-03-12T15:42:47.469Z,48.03
2023-03-12T15:45:26.125Z,49.00
2023-03-12T15:47:53.901Z,48.51
2023-03-12T15:50:23.280Z,48.00
2023-03-12T15:53:01.474Z,48.67
2023-03-12T15:55:30.132Z,48.81
2023-03-12T15:57:57.872Z,49.19
2023-03-12T16:00:31.350Z,48.13
2023-03-12T16:03:06.025Z,48.89
2023-03-12T16:05:34.797Z,49.32
2023-03-12T16:08:15.899Z,51.15
2023-03-12T16:10:42.489Z,51.80
2023-03-12T16:13:13.526Z,53.93
2023-03-12T16:15:40.580Z,54.21
2023-03-12T16:18:12.860Z,55.98
2023-03-12T16:20:39.445Z,57.71
2023-03-12T16:23:06.029Z,59.61
2023-03-12T16:25:32.749Z,60.82
2023-03-12T16:28:01.940Z,58.62
2023-03-12T16:30:31.361Z,60.20
2023-03-12T16:32:59.176Z,59.13
2023-03-12T16:35:28.060Z,60.62
2023-03-12T16:37:55.789Z,61.21
2023-03-12T16:40:32.997Z,61.55
2023-03-12T16:43:03.514Z,63.13
2023-03-12T16:45:31.954Z,62.92
2023-03-12T16:48:00.236Z,63.01
2023-03-12T16:50:27.610Z,63.71
2023-03-12T16:52:54.427Z,64.14
2023-03-12T16:55:27.804Z,62.91
2023-03-12T16:57:57.894Z,63.24
2023-03-12T17:00:27.310Z,62.39
2023-03-12T17:02:57.843Z,63.85
2023-03-12T17:05:26.585Z,62.72
2023-03-12T17:07:53.674Z,63.67
2023-03-12T17:10:20.389Z,64.15
2023-03-12T17:12:48.416Z,64.48
2023-03-12T17:15:20.845Z,63.52
2023-03-12T17:17:48.275Z,63.47
2023-03-12T17:20:16.234Z,62.65
2023-03-12T17:22:43.164Z,62.99
2023-03-12T17:25:21.952Z,63.97
2023-03-12T17:27:48.534Z,64.70
2023-03-12T17:30:15.113Z,66.32
2023-03-12T17:32:41.748Z,68.01
2023-03-12T17:35:08.460Z,68.42
2023-03-12T17:37:35.124Z,70.83
2023-03-12T17:40:08.927Z,72.48
2023-03-12T17:42:36.045Z,73.24
2023-03-12T17:45:03.880Z,73.30
2023-03-12T17:47:31.055Z,75.20
2023-03-12T17:49:59.441Z,75.41
2023-03-12T17:52:26.084Z,75.41
2023-03-12T17:54:52.637Z,75.39
2023-03-12T17:57:19.303Z,74.98
2023-03-12T17:59:45.878Z,75.56
2023-03-12T18:02:14.358Z,76.97
2023-03-12T18:04:41.171Z,76.92
2023-03-12T18:07:07.987Z,77.92
2023-03-12T18:09:34.637Z,79.20
2023-03-12T18:12:01.241Z,79.36
2023-03-12T18:14:28.036Z,78.39
2023-03-12T18:16:54.930Z,78.24
2023-03-12T18:19:21.605Z,79.10
2023-03-12T18:21:48.209Z,78.41
2023-03-12T18:24:14.994Z,79.36
2023-03-12T18:26:41.835Z,79.48
2023-03-12T18:29:08.437Z,81.04
2023-03-12T18:31:35.098Z,80.87
2023-03-12T18:34:01.675Z,81.08
2023-03-12T18:36:28.357Z,82.46
2023-03-12T18:38:54.986Z,82.51
2023-03-12T18:41:21.619Z,82.66
2023-03-12T18:43:48.250Z,81.57
2023-03-12T18:46:15.074Z,82.82
2023-03-12T18:48:44.067Z,83.01
2023-03-12T18:51:11.062Z,82.77
2023-03-12T18:53:37.673Z,82.52
2023-03-12T18:56:04.528Z,82.29
2023-03-12T18:58:31.161Z,82.74
2023-03-12T19:00:58.734Z,82.97
2023-03-12T19:03:26.050Z,82.46
2023-03-12T19:06:05.871Z,83.71
2023-03-12T19:08:32.571Z,84.29
2023-03-12T19:10:59.234Z,84.50
2023-03-12T19:13:26.160Z,84.78
2023-03-12T19:16:00.568Z,84.28
2023-03-12T19:18:27.710Z,83.48
2023-03-12T19:20:54.715Z,84.17
2023-03-12T19:23:21.602Z,84.14
2023-03-12T19:25:48.744Z,83.67
2023-03-12T19:28:15.318Z,84.91
2023-03-12T19:30:41.909Z,85.19
2023-03-12T19:33:08.760Z,85.22
2023-03-12T19:35:41.955Z,84.78
2023-03-12T19:38:08.985Z,85.05
2023-03-12T19:40:35.711Z,85.66
2023-03-12T19:43:02.466Z,85.56
2023-03-12T19:45:29.238Z,84.88
2023-03-12T19:47:55.900Z,84.69
2023-03-12T19:50:23.919Z,85.19
2023-03-12T19:52:50.546Z,85.19
2023-03-12T19:55:17.185Z,85.22
2023-03-12T19:57:43.752Z,85.36
2023-03-12T20:00:12.323Z,86.04
2023-03-12T20:02:39.721Z,85.90
2023-03-12T20:05:07.108Z,87.11
2023-03-12T20:07:33.968Z,86.66
2023-03-12T20:10:00.765Z,87.24
2023-03-12T20:12:27.357Z,87.24
2023-03-12T20:14:53.975Z,86.60
2023-03-12T20:17:20.629Z,86.69
2023-03-12T20:19:47.197Z,86.42
2023-03-12T20:22:13.829Z,86.00
2023-03-12T20:24:40.456Z,86.19
2023-03-12T20:27:07.138Z,86.22
2023-03-12T20:29:33.694Z,86.08
2023-03-12T20:32:00.449Z,85.92
2023-03-12T20:34:27.132Z,85.83
2023-03-12T20:36:53.743Z,85.53
2023-03-12T20:39:20.351Z,85.90
2023-03-12T20:41:49.006Z,86.33
2023-03-12T20:44:15.641Z,85.81
2023-03-12T20:46:42.210Z,85.26
2023-03-12T20:49:08.773Z,85.65
2023-03-12T20:51:35.358Z,85.29
2023-03-12T20:54:01.930Z,85.84
2023-03-12T20:56:28.677Z,85.80
2023-03-12T20:58:55.454Z,85.73
2023-03-12T21:01:22.069Z,85.89
2023-03-12T21:03:48.700Z,85.31
2023-03-12T21:06:15.256Z,85.25
2023-03-12T21:08:41.833Z,85.55
2023-03-12T21:11:08.610Z,85.18
2023-03-12T21:13:36.360Z,85.51
2023-03-12T21:16:06.132Z,85.55
2023-03-12T21:18:32.873Z,85.89
2023-03-12T21:21:07.471Z,86.01
2023-03-12T21:23:34.747Z,86.18
2023-03-12T21:26:09.078Z,86.41
2023-03-12T21:28:36.341Z,87.20
2023-03-12T21:31:11.780Z,87.05
2023-03-12T21:33:38.454Z,86.92
2023-03-12T21:36:06.611Z,87.07
2023-03-12T21:38:35.522Z,87.15
2023-03-12T21:41:06.763Z,87.51
2023-03-12T21:43:33.310Z,86.85
2023-03-12T21:46:07.631Z,88.94
2023-03-12T21:48:34.962Z,88.79
2023-03-12T21:51:05.777Z,88.29
2023-03-12T21:53:32.552Z,87.61
2023-03-12T21:56:00.363Z,87.89
2023-03-12T21:58:27.981Z,87.44
2023-03-12T22:01:16.467Z,87.13
2023-03-12T22:03:44.728Z,86.94
2023-03-12T22:06:12.003Z,88.06
2023-03-12T22:08:39.193Z,87.55
2023-03-12T22:11:06.999Z,87.29
2023-03-12T22:13:33.817Z,87.17
2023-03-12T22:16:02.593Z,86.35
2023-03-12T22:18:29.564Z,86.42
2023-03-12T22:21:03.288Z,85.75
2023-03-12T22:23:30.206Z,85.57
2023-03-12T22:26:00.478Z,86.02
2023-03-12T22:28:27.163Z,85.68
2023-03-12T22:31:01.824Z,85.73
2023-03-12T22:33:28.941Z,85.89
2023-03-12T22:35:55.577Z,85.74
2023-03-12T22:38:22.964Z,86.06
2023-03-12T22:40:49.666Z,85.98
2023-03-12T22:43:16.445Z,85.06
2023-03-12T22:45:43.050Z,85.02
2023-03-12T22:48:09.663Z,85.18
2023-03-12T22:50:36.259Z,85.58
2023-03-12T22:53:02.830Z,85.41
2023-03-12T22:55:29.397Z,85.27
2023-03-12T22:57:55.976Z,85.29
2023-03-12T23:00:23.130Z,85.60
2023-03-12T23:02:50.252Z,85.85
2023-03-12T23:05:16.871Z,85.76
2023-03-12T23:07:43.499Z,85.48
2023-03-12T23:10:10.464Z,85.13
2023-03-12T23:12:37.037Z,85.13
2023-03-12T23:15:03.862Z,85.35
2023-03-12T23:17:30.525Z,85.84
2023-03-12T23:19:57.063Z,85.49
2023-03-12T23:22:23.618Z,84.54
2023-03-12T23:24:50.985Z,84.88
2023-03-12T23:27:17.535Z,84.72
2023-03-12T23:29:44.089Z,85.45
2023-03-12T23:32:10.641Z,85.30
2023-03-12T23:34:37.218Z,85.81
2023-03-12T23:37:03.858Z,85.58
2023-03-12T23:39:30.992Z,84.90
2023-03-12T23:41:57.939Z,85.24
2023-03-12T23:44:24.850Z,85.12
2023-03-12T23:46:51.457Z,85.19
2023-03-12T23:49:18.028Z,85.37
2023-03-12T23:51:44.612Z,84.66
2023-03-12T23:54:11.198Z,84.69
2023-03-12T23:56:39.512Z,85.47
2023-03-12T23:59:08.056Z,85.33
